Time;durP1;ratioP1;P1;durP2;ratioP2;P2;SDS_P1;SDS_P2;PMS_P1;PMS_P2;Temp;Humidity;BMP_temperature;BMP_pressure;BME280_temperature;BME280_humidity;BME280_pressure;Samples;Min_cycle;Max_cycle;Signal;HPM_P1;HPM_P2
2021/06/11 00:00:50;;;;;;;5.10;4.82;;;;;;;17.12;78.27;100823.13;6317304;22;20528;-78
2021/06/11 00:03:16;;;;;;;4.22;3.83;;;;;;;17.08;78.40;100822.91;6291098;22;20007;-79
2021/06/11 00:05:42;;;;;;;5.78;5.20;;;;;;;16.98;78.42;100811.19;6314203;22;20403;-78
2021/06/11 00:08:09;;;;;;;5.30;5.05;;;;;;;16.95;78.83;100811.78;6291978;22;20097;-80
2021/06/11 00:10:35;;;;;;;4.63;4.25;;;;;;;16.95;79.18;100817.31;6315389;22;20023;-83
2021/06/11 00:13:03;;;;;;;5.10;4.72;;;;;;;16.90;79.45;100816.25;6294454;22;20033;-83
2021/06/11 00:15:29;;;;;;;5.70;5.28;;;;;;;16.83;79.64;100813.00;6264518;22;20019;-82
2021/06/11 00:17:55;;;;;;;6.75;6.05;;;;;;;16.79;80.00;100814.72;6266927;22;20011;-81
2021/06/11 00:20:22;;;;;;;7.05;4.82;;;;;;;16.78;79.97;100813.09;6291380;22;20014;-76
2021/06/11 00:22:48;;;;;;;6.20;5.65;;;;;;;16.76;80.41;100818.09;6320456;22;20095;-80
2021/06/11 00:25:19;;;;;;;5.45;5.05;;;;;;;16.71;80.04;100807.13;6291720;22;20008;-82
2021/06/11 00:27:59;;;;;;;4.72;4.45;;;;;;;16.65;80.24;100802.81;6268567;22;20066;-80
2021/06/11 00:30:24;;;;;;;4.72;4.43;;;;;;;16.69;80.63;100814.88;6289738;22;20326;-81
2021/06/11 00:32:50;;;;;;;4.72;4.43;;;;;;;16.58;80.70;100803.97;6293528;22;20047;-78
2021/06/11 00:35:16;;;;;;;4.90;4.60;;;;;;;16.71;80.79;100818.19;6313753;22;20078;-78
2021/06/11 00:37:41;;;;;;;4.72;4.40;;;;;;;16.70;80.89;100822.84;6292127;22;20007;-79
2021/06/11 00:40:09;;;;;;;5.68;5.35;;;;;;;16.73;80.70;100821.44;6314133;22;20026;-79
2021/06/11 00:42:36;;;;;;;5.47;5.03;;;;;;;16.75;80.88;100819.22;6292274;22;20019;-77
2021/06/11 00:45:06;;;;;;;5.97;5.47;;;;;;;16.74;80.91;100817.56;6319871;22;20003;-80
2021/06/11 00:47:32;;;;;;;4.25;4.05;;;;;;;16.76;81.14;100820.84;6317466;22;20029;-76
2021/06/11 00:49:58;;;;;;;4.80;4.60;;;;;;;16.77;80.78;100822.50;6292592;22;20031;-78
2021/06/11 00:52:26;;;;;;;4.75;4.53;;;;;;;16.67;80.92;100823.47;6314369;22;20074;-76
2021/06/11 00:54:52;;;;;;;5.38;4.95;;;;;;;16.66;81.22;100823.75;6288547;22;20003;-74
2021/06/11 00:57:17;;;;;;;6.53;4.30;;;;;;;16.63;80.99;100827.13;6319809;22;20007;-78
2021/06/11 00:59:43;;;;;;;4.78;4.22;;;;;;;16.61;81.30;100829.38;6320014;22;20010;-78
2021/06/11 01:02:10;;;;;;;3.83;3.63;;;;;;;16.65;81.44;100827.66;6264623;22;20041;-78
2021/06/11 01:04:36;;;;;;;5.18;4.93;;;;;;;16.67;81.18;100828.16;6291480;22;20003;-82
2021/06/11 01:07:02;;;;;;;5.32;4.90;;;;;;;16.69;81.07;100836.97;6318181;22;20304;-79
2021/06/11 01:09:30;;;;;;;4.05;3.85;;;;;;;16.67;81.06;100839.22;6317936;22;20015;-79
2021/06/11 01:11:56;;;;;;;5.88;3.58;;;;;;;16.64;81.10;100829.56;6293448;22;20007;-79
2021/06/11 01:14:22;;;;;;;3.78;3.55;;;;;;;16.66;81.15;100829.28;6264064;22;20010;-78
2021/06/11 01:16:48;;;;;;;4.57;4.35;;;;;;;16.67;81.26;100822.66;6325371;22;20322;-79
2021/06/11 01:19:14;;;;;;;4.22;3.92;;;;;;;16.66;80.95;100821.00;6298327;22;20059;-79
2021/06/11 01:22:07;;;;;;;4.68;4.38;;;;;;;16.71;81.03;100818.19;6326576;22;20063;-80
2021/06/11 01:24:41;;;;;;;4.18;3.97;;;;;;;16.61;81.30;100812.78;6295518;22;20011;-80
2021/06/11 01:27:07;;;;;;;4.68;4.22;;;;;;;16.65;81.00;100830.41;6297096;22;20007;-80
2021/06/11 01:29:35;;;;;;;3.70;3.58;;;;;;;16.63;81.19;100818.84;6269995;22;20018;-80
2021/06/11 01:32:07;;;;;;;3.67;3.55;;;;;;;16.62;81.10;100814.41;6266312;22;20003;-78
2021/06/11 01:34:50;;;;;;;4.10;3.90;;;;;;;16.62;80.96;100809.75;6294865;22;20000;-76
2021/06/11 01:37:20;;;;;;;2.78;2.67;;;;;;;16.74;81.10;100818.38;6293972;22;20007;-75
2021/06/11 01:39:50;;;;;;;4.00;3.80;;;;;;;16.77;80.84;100819.75;6323777;22;20003;-77
2021/06/11 01:42:16;;;;;;;3.13;3.03;;;;;;;16.77;80.82;100805.94;6264882;22;20042;-78
2021/06/11 01:44:43;;;;;;;4.28;4.03;;;;;;;16.80;80.71;100819.13;6319056;22;20422;-77
2021/06/11 01:47:12;;;;;;;3.13;3.03;;;;;;;16.83;80.58;100818.53;6318649;22;20000;-77
2021/06/11 01:49:38;;;;;;;3.88;3.67;;;;;;;16.83;80.13;100815.78;6316878;22;20006;-76
2021/06/11 01:52:18;;;;;;;3.40;3.20;;;;;;;16.74;80.90;100795.50;6317687;22;20007;-75
2021/06/11 01:54:45;;;;;;;4.15;3.85;;;;;;;16.85;80.43;100810.78;6264813;22;20007;-76
2021/06/11 01:57:11;;;;;;;3.53;3.33;;;;;;;16.82;80.64;100807.78;6285489;22;20011;-77
2021/06/11 01:59:39;;;;;;;3.92;3.72;;;;;;;16.73;80.73;100804.88;6289742;22;20003;-76
2021/06/11 02:02:14;;;;;;;3.65;3.35;;;;;;;16.80;80.46;100816.38;6291784;22;20015;-79
2021/06/11 02:04:40;;;;;;;3.75;3.55;;;;;;;16.70;80.20;100794.44;6288601;22;20003;-80
2021/06/11 02:07:09;;;;;;;3.63;3.42;;;;;;;16.72;80.46;100797.75;6298416;22;20010;-80
2021/06/11 02:09:40;;;;;;;3.90;3.60;;;;;;;16.80;80.36;100808.09;6326022;22;19999;-79
2021/06/11 02:12:07;;;;;;;3.70;3.47;;;;;;;16.74;80.42;100788.00;6295843;22;20018;-78
2021/06/11 02:14:35;;;;;;;2.67;2.58;;;;;;;16.83;80.25;100799.19;6271813;22;19995;-80
2021/06/11 02:17:02;;;;;;;3.78;3.58;;;;;;;16.79;80.29;100800.09;6273355;22;20003;-80
2021/06/11 02:19:28;;;;;;;3.63;3.45;;;;;;;16.79;80.32;100800.09;6290095;22;20070;-80
2021/06/11 02:21:55;;;;;;;3.53;3.33;;;;;;;16.80;80.29;100799.00;6291387;22;20007;-80
2021/06/11 02:24:20;;;;;;;3.97;3.42;;;;;;;16.75;80.60;100802.66;6317493;22;20010;-80
2021/06/11 02:26:47;;;;;;;3.67;3.55;;;;;;;16.73;80.08;100796.59;6265561;22;20086;-78
2021/06/11 02:29:12;;;;;;;3.35;3.22;;;;;;;16.72;80.76;100806.03;6289495;22;20003;-78
2021/06/11 02:31:39;;;;;;;3.58;3.22;;;;;;;16.67;80.35;100806.88;6315217;22;20129;-79
2021/06/11 02:34:05;;;;;;;3.15;2.95;;;;;;;16.66;80.59;100796.16;6290925;22;20026;-76
2021/06/11 02:36:31;;;;;;;2.40;2.30;;;;;;;16.67;80.50;100795.03;6291042;22;20072;-77
2021/06/11 02:38:57;;;;;;;2.53;2.42;;;;;;;16.69;80.69;100798.31;6290180;22;20034;-77
2021/06/11 02:41:25;;;;;;;3.05;2.95;;;;;;;16.70;80.66;100795.25;6289953;22;20023;-77
2021/06/11 02:43:53;;;;;;;2.70;2.60;;;;;;;16.71;80.46;100796.09;6313172;22;20007;-77
2021/06/11 02:46:29;;;;;;;2.58;2.45;;;;;;;16.74;80.42;100792.72;6317105;22;20010;-77
2021/06/11 02:50:07;;;;;;;;;;;;;;;;;;;;;
2021/06/11 02:52:50;;;;;;;2.42;2.22;;;;;;;16.72;80.16;100765.41;6298979;22;20018;-79
2021/06/11 02:55:33;;;;;;;2.42;2.25;;;;;;;16.74;79.95;100770.63;6318125;22;20043;-76
2021/06/11 02:58:17;;;;;;;1.73;1.63;;;;;;;16.89;80.16;100792.53;6291212;22;20398;-77
2021/06/11 03:00:58;;;;;;;;;;;;;;;;;;;;;
2021/06/11 03:03:29;;;;;;;2.10;2.00;;;;;;;16.91;79.98;100790.28;6314931;22;20015;-77
2021/06/11 03:06:01;;;;;;;1.85;1.77;;;;;;;16.89;79.88;100775.13;6318893;22;20003;-79
2021/06/11 03:08:30;;;;;;;1.83;1.73;;;;;;;17.03;79.78;100802.81;6318016;22;19995;-78
2021/06/11 03:11:06;;;;;;;1.95;1.85;;;;;;;16.98;79.73;100784.41;6290855;22;20015;-79
2021/06/11 03:13:32;;;;;;;1.33;1.33;;;;;;;17.09;79.38;100796.09;6319326;22;20003;-78
2021/06/11 03:16:00;;;;;;;1.70;1.60;;;;;;;16.98;79.49;100784.41;6291381;22;20007;-78
2021/06/11 03:18:49;;;;;;;1.63;1.52;;;;;;;17.00;79.57;100781.31;6316658;22;20006;-78
2021/06/11 03:21:24;;;;;;;1.73;1.60;;;;;;;17.08;79.63;100788.91;6317521;22;20368;-78
2021/06/11 03:24:02;;;;;;;2.20;2.10;;;;;;;17.10;79.53;100803.28;6291858;22;20006;-78
2021/06/11 03:26:33;;;;;;;1.67;1.58;;;;;;;17.05;79.46;100790.31;6285809;22;20267;-78
2021/06/11 03:29:02;;;;;;;1.30;1.30;;;;;;;17.01;79.75;100794.00;6291074;22;20007;-78
2021/06/11 03:31:42;;;;;;;3.90;1.90;;;;;;;16.98;80.28;100794.59;6289323;22;20015;-77
2021/06/11 03:34:16;;;;;;;1.40;1.30;;;;;;;16.96;80.01;100791.34;6290661;22;20057;-77
2021/06/11 03:36:45;;;;;;;1.40;1.40;;;;;;;16.92;80.39;100786.41;6318111;22;20006;-77
2021/06/11 03:39:20;;;;;;;1.15;1.05;;;;;;;16.92;80.35;100791.94;6318904;22;20055;-78
2021/06/11 03:41:46;;;;;;;1.02;1.02;;;;;;;16.91;80.36;100789.47;6288700;22;20045;-77
2021/06/11 03:44:14;;;;;;;1.23;1.23;;;;;;;16.84;80.31;100784.28;6318704;22;20006;-77
2021/06/11 03:46:42;;;;;;;1.02;1.02;;;;;;;16.82;80.23;100789.31;6288396;22;20082;-75
2021/06/11 03:49:08;;;;;;;1.10;1.10;;;;;;;16.83;80.58;100788.16;6311015;22;20007;-75
2021/06/11 03:51:38;;;;;;;1.10;1.10;;;;;;;16.82;80.37;100781.00;6289258;22;20018;-75
2021/06/11 03:54:07;;;;;;;0.80;0.80;;;;;;;16.86;80.25;100789.50;6318709;22;20006;-75
2021/06/11 03:56:36;;;;;;;0.68;0.68;;;;;;;16.89;80.37;100787.00;6318030;22;19996;-77
2021/06/11 03:59:02;;;;;;;0.77;0.77;;;;;;;16.88;80.10;100799.19;6325842;22;20086;-76
2021/06/11 04:01:39;;;;;;;0.80;0.77;;;;;;;16.87;80.11;100794.75;6325427;22;20003;-76
2021/06/11 04:04:06;;;;;;;1.65;1.25;;;;;;;16.89;79.87;100792.53;6319249;22;20003;-78
2021/06/11 04:06:37;;;;;;;0.90;0.90;;;;;;;16.82;79.76;100788.47;6299394;22;20030;-77
2021/06/11 04:09:14;;;;;;;3.03;1.00;;;;;;;16.86;80.22;100806.88;6321340;22;19999;-77
2021/06/11 04:11:56;;;;;;;1.02;1.02;;;;;;;16.82;79.82;100805.03;6293329;22;20095;-77
2021/06/11 04:14:30;;;;;;;1.10;1.10;;;;;;;16.73;79.99;100788.31;6293050;22;20321;-78
2021/06/11 04:17:00;;;;;;;0.98;0.98;;;;;;;16.79;80.19;100808.38;6289321;22;20003;-77
2021/06/11 04:19:33;;;;;;;1.23;1.23;;;;;;;16.71;80.06;100798.84;6291198;22;20447;-77
2021/06/11 04:22:13;;;;;;;1.17;0.98;;;;;;;16.71;80.01;100796.91;6321190;22;20003;-79
2021/06/11 04:24:43;;;;;;;1.02;1.02;;;;;;;16.81;80.25;100815.25;6292325;22;20310;-77
2021/06/11 04:27:10;;;;;;;1.10;1.10;;;;;;;16.74;79.71;100801.00;6291731;22;20005;-77
2021/06/11 04:29:39;;;;;;;1.00;1.00;;;;;;;16.78;80.07;100801.22;6291033;22;20066;-78
2021/06/11 04:32:06;;;;;;;1.20;1.20;;;;;;;16.73;80.01;100797.44;6315251;22;20026;-78
2021/06/11 04:34:31;;;;;;;0.90;0.90;;;;;;;16.75;79.66;100788.84;6266948;22;19999;-78
2021/06/11 04:36:57;;;;;;;1.45;1.35;;;;;;;16.80;79.78;100791.53;6266782;22;20056;-79
2021/06/11 04:39:22;;;;;;;0.93;0.80;;;;;;;16.96;79.25;100797.66;6240945;22;20003;-80
2021/06/11 04:41:48;;;;;;;0.57;0.57;;;;;;;17.02;79.31;100801.19;6292038;22;20050;-80
2021/06/11 04:44:14;;;;;;;0.55;0.55;;;;;;;17.11;79.21;100810.41;6292543;22;20067;-80
2021/06/11 04:46:54;;;;;;;0.40;0.40;;;;;;;17.12;78.64;100801.00;6319043;22;20006;-80
2021/06/11 04:49:37;;;;;;;0.40;0.40;;;;;;;17.10;78.85;100786.69;6263473;22;20045;-79
2021/06/11 04:52:03;;;;;;;0.60;0.60;;;;;;;17.25;78.39;100805.75;6319710;22;20029;-78
2021/06/11 04:54:29;;;;;;;0.70;0.70;;;;;;;17.32;78.21;100810.91;6291931;22;20027;-80
2021/06/11 04:56:57;;;;;;;0.60;0.60;;;;;;;17.27;78.52;100813.75;6290080;22;20011;-81
2021/06/11 04:59:25;;;;;;;0.35;0.35;;;;;;;17.29;78.47;100817.06;6290675;22;19999;-80
2021/06/11 05:01:50;;;;;;;0.98;0.98;;;;;;;17.43;77.96;100826.22;6310820;22;19999;-80
2021/06/11 05:04:16;;;;;;;0.50;0.50;;;;;;;17.37;77.87;100802.53;6318737;22;19999;-78
2021/06/11 05:06:42;;;;;;;1.45;1.45;;;;;;;17.56;77.55;100826.53;6290394;22;20007;-79
2021/06/11 05:09:07;;;;;;;1.40;1.05;;;;;;;17.53;77.47;100811.38;6263774;22;19999;-79
2021/06/11 05:11:42;;;;;;;1.15;0.82;;;;;;;17.66;77.71;100817.25;6292441;22;20011;-84
2021/06/11 05:14:26;;;;;;;0.82;0.82;;;;;;;17.63;77.43;100799.31;6292050;22;20007;-84
2021/06/11 05:16:52;;;;;;;1.20;1.20;;;;;;;17.76;76.75;100830.88;6319287;22;19999;-81
2021/06/11 05:19:23;;;;;;;1.00;1.00;;;;;;;17.67;76.54;100810.56;6319039;22;20014;-82
2021/06/11 05:21:49;;;;;;;0.90;0.90;;;;;;;17.67;76.34;100811.41;6289229;22;20007;-81
2021/06/11 05:24:15;;;;;;;3.38;1.05;;;;;;;17.83;76.49;100825.78;6291089;22;20007;-77
2021/06/11 05:26:50;;;;;;;;;;;;;;;;;;;;;
2021/06/11 05:29:16;;;;;;;0.77;0.77;;;;;;;17.88;75.99;100838.69;6317823;22;20031;-77
2021/06/11 05:31:42;;;;;;;0.73;0.73;;;;;;;17.76;75.95;100809.56;6317493;22;19999;-78
2021/06/11 05:34:16;;;;;;;0.70;0.70;;;;;;;17.85;75.43;100820.75;6291991;22;19999;-77
2021/06/11 05:36:44;;;;;;;0.57;0.57;;;;;;;17.87;75.71;100815.75;6319408;22;20003;-76
2021/06/11 05:39:12;;;;;;;0.47;0.47;;;;;;;17.83;75.85;100814.72;6318786;22;20003;-76
2021/06/11 05:41:38;;;;;;;0.68;0.68;;;;;;;17.94;75.63;100827.25;6316229;22;20015;-77
2021/06/11 05:44:13;;;;;;;0.43;0.43;;;;;;;18.02;75.80;100835.97;6289064;22;20041;-74
2021/06/11 05:46:39;;;;;;;0.40;0.40;;;;;;;18.03;75.82;100841.19;6262864;22;20011;-75
2021/06/11 05:49:07;;;;;;;0.47;0.45;;;;;;;18.02;75.71;100822.13;6315848;22;20052;-75
2021/06/11 05:51:36;;;;;;;0.40;0.40;;;;;;;18.10;75.50;100818.66;6287206;22;20010;-75
2021/06/11 05:54:02;;;;;;;0.45;0.45;;;;;;;18.31;75.39;100844.78;6288228;22;20031;-76
2021/06/11 05:56:28;;;;;;;0.68;0.68;;;;;;;18.31;75.19;100825.41;6288933;22;20839;-74
2021/06/11 05:58:53;;;;;;;0.40;0.40;;;;;;;18.53;74.76;100843.25;6288034;22;20054;-75
2021/06/11 06:01:22;;;;;;;0.40;0.32;;;;;;;18.49;74.78;100826.41;6291261;22;20007;-76
2021/06/11 06:04:28;;;;;;;0.80;0.60;;;;;;;18.70;74.58;100841.78;6287832;22;20676;-78
2021/06/11 06:07:12;;;;;;;;;;;;;;;;;;;;;
2021/06/11 06:09:51;;;;;;;0.57;0.57;;;;;;;18.74;73.73;100838.06;6316972;22;20050;-76
2021/06/11 06:12:19;;;;;;;1.10;0.70;;;;;;;18.76;73.15;100834.97;6318873;22;20025;-79
2021/06/11 06:15:12;;;;;;;;;;;;;;;;;;;;;
2021/06/11 06:17:39;;;;;;;2.40;0.80;;;;;;;18.65;72.33;100846.28;6266549;22;20034;-80
2021/06/11 06:20:16;;;;;;;0.75;0.75;;;;;;;18.57;71.96;100830.38;6286008;22;20007;-81
2021/06/11 06:22:42;;;;;;;0.50;0.50;;;;;;;18.58;71.81;100840.34;6295285;22;19999;-80
2021/06/11 06:25:09;;;;;;;0.60;0.60;;;;;;;18.64;72.42;100836.34;6289685;22;20080;-79
2021/06/11 06:27:59;;;;;;;;;;;;;;;;;;;;;
2021/06/11 06:30:25;;;;;;;0.68;0.68;;;;;;;18.74;72.13;100832.53;6295548;22;20034;-79
2021/06/11 06:32:50;;;;;;;0.60;0.60;;;;;;;18.92;71.22;100850.16;6319417;22;19999;-79
2021/06/11 06:35:18;;;;;;;0.73;0.73;;;;;;;18.97;71.43;100857.56;6289664;22;20008;-77
2021/06/11 06:37:44;;;;;;;0.73;0.73;;;;;;;18.82;71.25;100830.97;6317323;22;20002;-78
2021/06/11 06:40:10;;;;;;;2.17;0.95;;;;;;;19.06;70.70;100860.41;6289308;22;20025;-78
2021/06/11 06:45:36;;;;;;;0.50;0.50;;;;;;;19.14;70.72;100859.63;6272979;22;20003;-76
2021/06/11 06:48:20;;;;;;;0.70;0.70;;;;;;;19.14;70.16;100849.38;6291169;22;20090;-78
2021/06/11 06:51:10;;;;;;;0.77;0.70;;;;;;;19.10;69.85;100833.66;6264042;22;20015;-77
2021/06/11 06:53:35;;;;;;;1.00;1.00;;;;;;;19.29;70.16;100853.72;6317375;22;20082;-77
2021/06/11 06:56:04;;;;;;;0.70;0.70;;;;;;;19.24;69.51;100828.88;6289894;22;20000;-78
2021/06/11 06:58:31;;;;;;;0.50;0.50;;;;;;;19.36;68.95;100837.47;6291986;22;20010;-78
2021/06/11 07:00:59;;;;;;;0.57;0.50;;;;;;;19.54;69.04;100857.00;6317390;22;20036;-78
2021/06/11 07:03:31;;;;;;;0.52;0.50;;;;;;;19.48;68.12;100856.31;6316270;22;20000;-78
2021/06/11 07:06:05;;;;;;;1.30;0.70;;;;;;;19.34;68.56;100834.19;6290257;22;20046;-78
2021/06/11 07:08:57;;;;;;;3.22;0.47;;;;;;;19.48;68.60;100850.78;6316930;22;19999;-77
2021/06/11 07:11:42;;;;;;;0.43;0.40;;;;;;;19.60;67.61;100869.59;6277836;22;20007;-79
2021/06/11 07:14:15;;;;;;;1.13;0.60;;;;;;;19.68;67.47;100868.84;6268197;22;20025;-77
2021/06/11 07:16:58;;;;;;;0.40;0.40;;;;;;;19.62;67.02;100856.22;6314670;22;20003;-74
2021/06/11 07:19:24;;;;;;;0.77;0.52;;;;;;;19.70;67.01;100863.78;6314672;22;20003;-74
2021/06/11 07:21:49;;;;;;;0.40;0.40;;;;;;;19.86;66.01;100861.47;6312812;22;20003;-74
2021/06/11 07:24:14;;;;;;;0.50;0.50;;;;;;;20.15;66.51;100873.19;6312176;22;20015;-75
2021/06/11 07:26:41;;;;;;;0.50;0.50;;;;;;;20.25;65.37;100860.97;6290207;22;19999;-75
2021/06/11 07:29:06;;;;;;;0.20;0.20;;;;;;;20.54;65.57;100865.97;6318155;22;20000;-75
2021/06/11 07:31:33;;;;;;;0.20;0.20;;;;;;;20.85;64.38;100859.53;6292536;22;20010;-75
2021/06/11 07:33:59;;;;;;;0.80;0.30;;;;;;;21.19;63.54;100872.63;6319467;22;20453;-75
2021/06/11 07:36:24;;;;;;;0.30;0.30;;;;;;;21.48;62.63;100864.75;6319068;22;20003;-75
2021/06/11 07:38:50;;;;;;;0.40;0.40;;;;;;;21.65;61.69;100861.97;6285649;22;20256;-75
2021/06/11 07:41:16;;;;;;;0.73;0.47;;;;;;;21.87;61.30;100857.34;6318239;22;20014;-75
2021/06/11 07:43:41;;;;;;;0.40;0.40;;;;;;;22.02;60.66;100869.88;6319923;22;20414;-75
2021/06/11 07:46:15;;;;;;;0.30;0.30;;;;;;;22.05;59.98;100858.91;6318758;22;20003;-75
2021/06/11 07:48:43;;;;;;;0.50;0.30;;;;;;;22.14;59.77;100872.81;6316883;22;20072;-75
2021/06/11 07:51:08;;;;;;;0.30;0.30;;;;;;;22.07;58.91;100867.75;6319645;22;19999;-72
2021/06/11 07:53:34;;;;;;;0.30;0.30;;;;;;;22.05;59.39;100872.84;6314302;22;20000;-75
2021/06/11 07:55:59;;;;;;;0.47;0.30;;;;;;;21.99;59.47;100876.97;6292898;22;20003;-74
2021/06/11 07:58:25;;;;;;;0.40;0.30;;;;;;;21.93;59.59;100867.13;6319790;22;20090;-72
2021/06/11 08:00:50;;;;;;;0.30;0.30;;;;;;;21.90;59.46;100885.34;6292626;22;20003;-73
2021/06/11 08:03:29;;;;;;;0.40;0.40;;;;;;;21.84;59.54;100880.25;6317441;22;20009;-74
2021/06/11 08:05:58;;;;;;;0.60;0.60;;;;;;;21.81;59.36;100892.06;6284554;22;20375;-74
2021/06/11 08:08:26;;;;;;;0.30;0.30;;;;;;;21.81;59.55;100880.94;6291431;22;20003;-74
2021/06/11 08:10:52;;;;;;;0.40;0.30;;;;;;;21.87;59.38;100885.97;6290406;22;20014;-74
2021/06/11 08:13:17;;;;;;;0.40;0.22;;;;;;;21.90;59.54;100890.06;6291752;22;19999;-74
2021/06/11 08:15:43;;;;;;;0.32;0.32;;;;;;;21.99;59.31;100888.09;6319246;22;19999;-74
2021/06/11 08:18:09;;;;;;;0.63;0.50;;;;;;;22.00;59.29;100889.72;6315531;22;20027;-74
2021/06/11 08:20:34;;;;;;;0.22;0.22;;;;;;;21.97;59.24;100895.94;6266699;22;20325;-73
2021/06/11 08:23:00;;;;;;;0.43;0.40;;;;;;;21.93;59.12;100892.19;6288157;22;20041;-74
2021/06/11 08:25:26;;;;;;;0.32;0.32;;;;;;;22.02;59.67;100897.72;6266363;22;20011;-74
2021/06/11 08:27:52;;;;;;;0.45;0.40;;;;;;;22.05;59.02;100897.91;6291623;22;20003;-74
2021/06/11 08:30:18;;;;;;;0.50;0.50;;;;;;;22.07;58.38;100901.16;6291262;22;20010;-75
2021/06/11 08:32:47;;;;;;;5.18;0.30;;;;;;;22.07;58.79;100898.38;6290813;22;20000;-74
2021/06/11 08:35:12;;;;;;;0.20;0.20;;;;;;;22.22;58.53;100910.94;6267388;22;20043;-74
2021/06/11 08:37:40;;;;;;;0.30;0.30;;;;;;;22.14;58.16;100895.88;6292882;22;20007;-75
2021/06/11 08:40:06;;;;;;;0.40;0.40;;;;;;;22.16;58.10;100891.97;6266114;22;20014;-76
2021/06/11 08:42:32;;;;;;;0.45;0.40;;;;;;;22.56;58.12;100908.34;6293139;22;20011;-75
2021/06/11 08:45:04;;;;;;;0.77;0.43;;;;;;;22.86;57.47;100903.59;6318061;22;20011;-76
2021/06/11 08:47:30;;;;;;;0.63;0.50;;;;;;;23.06;56.36;100913.13;6292143;22;20003;-75
2021/06/11 08:50:00;;;;;;;0.63;0.30;;;;;;;23.17;55.68;100925.56;6290014;22;20452;-75
2021/06/11 08:52:27;;;;;;;7.22;0.47;;;;;;;23.12;55.76;100919.38;6320904;22;20009;-75
2021/06/11 08:54:55;;;;;;;2.63;0.52;;;;;;;22.93;56.03;100906.66;6288449;22;20018;-75
2021/06/11 08:57:26;;;;;;;1.15;0.40;;;;;;;22.77;56.37;100905.63;6292658;22;20010;-73
2021/06/11 08:59:55;;;;;;;0.40;0.40;;;;;;;22.64;56.19;100896.34;6266083;22;20007;-76
2021/06/11 09:02:23;;;;;;;0.50;0.50;;;;;;;22.53;56.42;100909.88;6292913;22;20007;-74
2021/06/11 09:04:57;;;;;;;0.65;0.32;;;;;;;22.28;56.82;100895.69;6319233;22;20029;-73
2021/06/11 09:07:27;;;;;;;0.45;0.30;;;;;;;22.36;57.13;100913.53;6292052;22;20023;-74
2021/06/11 09:10:00;;;;;;;0.30;0.30;;;;;;;22.61;57.16;100902.59;6316466;22;20003;-73
2021/06/11 09:12:44;;;;;;;0.35;0.30;;;;;;;22.90;55.28;100909.31;6291410;22;20008;-73
2021/06/11 09:15:12;;;;;;;3.35;0.30;;;;;;;23.01;55.48;100911.38;6296073;22;20085;-73
2021/06/11 09:17:52;;;;;;;0.55;0.35;;;;;;;23.09;54.39;100906.88;6320452;22;20006;-73
2021/06/11 09:20:26;;;;;;;0.28;0.20;;;;;;;23.12;55.00;100906.22;6289212;22;20011;-73
2021/06/11 09:23:08;;;;;;;0.40;0.32;;;;;;;23.13;54.55;100907.88;6319209;22;20003;-74
2021/06/11 09:25:43;;;;;;;0.30;0.30;;;;;;;23.02;53.64;100895.44;6289711;22;20059;-75
2021/06/11 09:28:11;;;;;;;0.32;0.32;;;;;;;23.16;53.92;100901.59;6288878;22;20003;-74
2021/06/11 09:30:36;;;;;;;0.45;0.30;;;;;;;23.10;53.19;100893.75;6291834;22;20010;-80
2021/06/11 09:33:08;;;;;;;2.50;0.50;;;;;;;23.03;53.70;100908.25;6294034;22;19999;-81
2021/06/11 09:35:50;;;;;;;0.75;0.75;;;;;;;22.77;54.19;100886.13;6293171;22;20010;-80
2021/06/11 09:38:18;;;;;;;0.20;0.20;;;;;;;22.72;54.58;100898.28;6290140;22;20019;-74
2021/06/11 09:41:03;;;;;;;0.20;0.10;;;;;;;22.74;54.53;100895.97;6291904;22;20014;-75
2021/06/11 09:43:31;;;;;;;0.10;0.10;;;;;;;22.70;53.96;100906.16;6288105;22;20719;-74
2021/06/11 09:46:01;;;;;;;0.30;0.30;;;;;;;22.71;54.27;100907.78;6288207;22;20432;-75
2021/06/11 09:48:47;;;;;;;0.30;0.30;;;;;;;22.78;54.22;100910.03;6253793;22;20004;-74
2021/06/11 09:51:22;;;;;;;0.47;0.30;;;;;;;22.65;53.97;100898.78;6287871;22;20007;-73
2021/06/11 09:53:48;;;;;;;0.90;0.30;;;;;;;22.83;54.62;100895.91;6284939;22;20000;-75
2021/06/11 09:56:28;;;;;;;1.27;0.55;;;;;;;23.18;54.30;100902.06;6286310;22;20003;-77
2021/06/11 09:58:56;;;;;;;2.10;0.40;;;;;;;23.46;53.92;100895.91;6286597;22;20030;-72
2021/06/11 10:01:22;;;;;;;0.40;0.40;;;;;;;23.61;51.47;100883.31;6286437;22;20331;-73
2021/06/11 10:03:53;;;;;;;0.65;0.30;;;;;;;23.75;52.08;100887.78;6283968;22;20049;-74
2021/06/11 10:06:21;;;;;;;0.30;0.30;;;;;;;24.02;51.91;100891.94;6259922;22;20377;-72
2021/06/11 10:08:48;;;;;;;1.48;0.30;;;;;;;24.33;50.91;100887.78;6258760;22;20011;-73
2021/06/11 10:11:16;;;;;;;0.32;0.32;;;;;;;24.56;49.28;100874.97;6285107;22;20033;-71
2021/06/11 10:13:42;;;;;;;1.85;0.40;;;;;;;24.61;48.47;100878.75;6285234;22;20004;-73
2021/06/11 10:16:10;;;;;;;0.30;0.22;;;;;;;24.65;48.78;100872.09;6287635;22;20023;-72
2021/06/11 10:18:39;;;;;;;0.40;0.40;;;;;;;24.97;49.38;100877.03;6256962;22;20075;-71
2021/06/11 10:21:05;;;;;;;0.30;0.30;;;;;;;25.38;48.04;100872.28;6286456;22;20003;-72
2021/06/11 10:23:32;;;;;;;0.30;0.30;;;;;;;25.79;47.82;100871.00;6276889;22;20011;-72
2021/06/11 10:26:01;;;;;;;0.22;0.22;;;;;;;26.15;46.01;100864.72;6259539;22;20007;-73
2021/06/11 10:28:30;;;;;;;0.30;0.20;;;;;;;26.46;45.20;100869.50;6283336;22;20022;-72
2021/06/11 10:31:01;;;;;;;0.35;0.35;;;;;;;26.64;44.12;100870.72;6284094;22;20018;-72
2021/06/11 10:33:45;;;;;;;0.35;0.30;;;;;;;26.61;43.92;100877.06;6255942;22;20327;-71
2021/06/11 10:38:56;;;;;;;0.75;0.22;;;;;;;26.57;44.55;100880.97;6280281;22;20007;-73
2021/06/11 10:41:22;;;;;;;1.00;0.10;;;;;;;26.73;44.38;100880.97;6290140;22;20030;-73
2021/06/11 10:43:48;;;;;;;0.32;0.20;;;;;;;26.86;43.47;100888.06;6316651;22;20010;-73
2021/06/11 10:46:30;;;;;;;0.57;0.20;;;;;;;26.75;43.51;100875.78;6318950;22;20000;-73
2021/06/11 10:48:56;;;;;;;0.30;0.20;;;;;;;26.44;44.19;100878.25;6290393;22;20015;-72
2021/06/11 10:51:33;;;;;;;0.20;0.20;;;;;;;26.17;43.56;100876.38;6317729;22;20317;-73
2021/06/11 10:54:21;;;;;;;0.38;0.10;;;;;;;25.90;44.81;100873.28;6288726;22;19999;-72
2021/06/11 10:56:59;;;;;;;1.35;0.30;;;;;;;25.73;44.86;100888.41;6318647;22;20358;-73
2021/06/11 10:59:39;;;;;;;0.70;0.70;;;;;;;25.60;45.66;100868.09;6310038;22;20003;-74
2021/06/11 11:02:06;;;;;;;4.63;1.17;;;;;;;25.55;45.73;100866.38;6315369;22;19999;-72
2021/06/11 11:04:37;;;;;;;4.78;1.80;;;;;;;25.41;45.11;100865.97;6314997;22;20003;-72
2021/06/11 11:07:23;;;;;;;3.78;1.45;;;;;;;25.61;45.81;100873.34;6312512;22;20010;-73
2021/06/11 11:09:55;;;;;;;0.65;0.38;;;;;;;25.83;45.14;100867.47;6312529;22;20003;-71
2021/06/11 11:12:31;;;;;;;0.10;0.10;;;;;;;25.73;44.28;100871.63;6314205;22;20078;-74
2021/06/11 11:14:59;;;;;;;0.40;0.30;;;;;;;25.53;45.16;100877.09;6318158;22;20406;-74
2021/06/11 11:17:26;;;;;;;0.30;0.22;;;;;;;25.40;45.12;100864.31;6284562;22;20053;-75
2021/06/11 11:19:56;;;;;;;0.30;0.30;;;;;;;25.42;46.16;100867.56;6317106;22;20003;-75
2021/06/11 11:22:31;;;;;;;0.10;0.10;;;;;;;25.65;45.97;100861.41;6316414;22;19999;-73
2021/06/11 11:24:58;;;;;;;0.20;0.20;;;;;;;25.80;44.84;100866.19;6313658;22;20007;-74
2021/06/11 11:27:25;;;;;;;0.63;0.28;;;;;;;25.90;45.05;100846.06;6317718;22;20006;-74
2021/06/11 11:30:04;;;;;;;0.20;0.20;;;;;;;26.02;44.82;100850.00;6317713;22;20005;-73
2021/06/11 11:32:29;;;;;;;0.30;0.30;;;;;;;26.10;44.92;100849.00;6290921;22;20007;-73
2021/06/11 11:34:55;;;;;;;0.20;0.20;;;;;;;26.13;45.04;100840.69;6291039;22;20003;-75
2021/06/11 11:37:20;;;;;;;0.40;0.40;;;;;;;26.40;44.98;100854.13;6287567;22;19999;-72
2021/06/11 11:39:47;;;;;;;0.15;0.15;;;;;;;26.50;44.98;100842.34;6315363;22;20090;-73
2021/06/11 11:42:12;;;;;;;0.20;0.20;;;;;;;26.59;44.04;100851.38;6288982;22;20039;-71
2021/06/11 11:44:40;;;;;;;0.28;0.20;;;;;;;26.54;44.21;100842.44;6317083;22;20007;-71
2021/06/11 11:47:05;;;;;;;0.45;0.28;;;;;;;26.43;43.76;100842.19;6315994;22;20067;-74
2021/06/11 11:49:31;;;;;;;0.63;0.30;;;;;;;26.41;43.96;100841.75;6317108;22;20033;-74
2021/06/11 11:51:57;;;;;;;0.28;0.20;;;;;;;26.44;43.76;100835.41;6309939;22;20007;-73